Terminal Aerodrome Forecast
Issued by NWS

Home | Current Version | Previous Version | Text Only | Print | Product List | Glossary Off
Versions: 1 2 3 4 5 6 7 8 9 10 11 12 13 14 15 16 17

754
FTUS43 KABR 221446 AAB
TAFMBG
TAF AMD
KMBG 221446Z 2215/2312 15020G26KT P6SM SCT029 BKN110
     FM222300 15018G25KT P6SM SCT150
     FM230200 13012KT P6SM SCT200=

USA.gov is the U.S. government's official web portal to all federal, state and local government web resources and services.